sensor_id;sensor_type;location;lat;lon;timestamp;P1;durP1;ratioP1;P2;durP2;ratioP2
64653;SDS011;51065;48.884;12.598;2023-07-24T00:00:20;7.97;;;3.28;;
64653;SDS011;51065;48.884;12.598;2023-07-24T00:02:46;11.55;;;3.75;;
64653;SDS011;51065;48.884;12.598;2023-07-24T00:05:12;7.97;;;3.22;;
64653;SDS011;51065;48.884;12.598;2023-07-24T00:07:37;10.05;;;3.40;;
64653;SDS011;51065;48.884;12.598;2023-07-24T00:10:03;9.85;;;3.42;;
64653;SDS011;51065;48.884;12.598;2023-07-24T00:12:29;9.48;;;3.33;;
64653;SDS011;51065;48.884;12.598;2023-07-24T00:14:55;12.68;;;3.90;;
64653;SDS011;51065;48.884;12.598;2023-07-24T00:17:21;10.30;;;3.78;;
64653;SDS011;51065;48.884;12.598;2023-07-24T00:19:46;9.82;;;3.45;;
64653;SDS011;51065;48.884;12.598;2023-07-24T00:22:13;10.25;;;3.42;;
64653;SDS011;51065;48.884;12.598;2023-07-24T00:24:38;10.63;;;3.40;;
64653;SDS011;51065;48.884;12.598;2023-07-24T00:27:04;11.40;;;4.18;;
64653;SDS011;51065;48.884;12.598;2023-07-24T00:29:29;8.68;;;3.42;;
64653;SDS011;51065;48.884;12.598;2023-07-24T00:31:55;11.55;;;4.05;;
64653;SDS011;51065;48.884;12.598;2023-07-24T00:34:21;11.50;;;3.60;;
64653;SDS011;51065;48.884;12.598;2023-07-24T00:36:46;10.60;;;3.50;;
64653;SDS011;51065;48.884;12.598;2023-07-24T00:39:13;15.55;;;4.40;;
64653;SDS011;51065;48.884;12.598;2023-07-24T00:41:39;10.35;;;3.80;;
64653;SDS011;51065;48.884;12.598;2023-07-24T00:44:05;10.40;;;3.40;;
64653;SDS011;51065;48.884;12.598;2023-07-24T00:46:31;12.45;;;3.90;;
64653;SDS011;51065;48.884;12.598;2023-07-24T00:48:58;10.93;;;3.97;;
64653;SDS011;51065;48.884;12.598;2023-07-24T00:51:26;10.30;;;3.58;;
64653;SDS011;51065;48.884;12.598;2023-07-24T00:53:55;9.75;;;3.70;;
64653;SDS011;51065;48.884;12.598;2023-07-24T00:56:22;9.85;;;3.60;;
64653;SDS011;51065;48.884;12.598;2023-07-24T00:58:48;9.88;;;3.47;;
64653;SDS011;51065;48.884;12.598;2023-07-24T01:01:14;8.60;;;3.53;;
64653;SDS011;51065;48.884;12.598;2023-07-24T01:03:41;9.52;;;3.45;;
64653;SDS011;51065;48.884;12.598;2023-07-24T01:06:08;9.25;;;3.15;;
64653;SDS011;51065;48.884;12.598;2023-07-24T01:08:35;9.00;;;3.60;;
64653;SDS011;51065;48.884;12.598;2023-07-24T01:11:09;8.15;;;3.30;;
64653;SDS011;51065;48.884;12.598;2023-07-24T01:13:42;9.50;;;3.58;;
64653;SDS011;51065;48.884;12.598;2023-07-24T01:16:18;9.52;;;3.55;;
64653;SDS011;51065;48.884;12.598;2023-07-24T01:18:46;10.27;;;3.97;;
64653;SDS011;51065;48.884;12.598;2023-07-24T01:21:14;10.57;;;3.78;;
64653;SDS011;51065;48.884;12.598;2023-07-24T01:26:30;11.35;;;3.40;;
64653;SDS011;51065;48.884;12.598;2023-07-24T01:28:56;8.30;;;3.28;;
64653;SDS011;51065;48.884;12.598;2023-07-24T01:31:22;9.02;;;3.55;;
64653;SDS011;51065;48.884;12.598;2023-07-24T01:33:47;9.15;;;3.42;;
64653;SDS011;51065;48.884;12.598;2023-07-24T01:36:13;11.00;;;3.85;;
64653;SDS011;51065;48.884;12.598;2023-07-24T01:38:40;9.30;;;3.55;;
64653;SDS011;51065;48.884;12.598;2023-07-24T01:41:06;10.35;;;3.58;;
64653;SDS011;51065;48.884;12.598;2023-07-24T01:43:32;10.05;;;3.83;;
64653;SDS011;51065;48.884;12.598;2023-07-24T01:45:59;8.93;;;3.33;;
64653;SDS011;51065;48.884;12.598;2023-07-24T01:48:24;7.75;;;2.72;;
64653;SDS011;51065;48.884;12.598;2023-07-24T01:50:50;9.95;;;3.65;;
64653;SDS011;51065;48.884;12.598;2023-07-24T01:53:15;11.20;;;4.00;;
64653;SDS011;51065;48.884;12.598;2023-07-24T01:55:41;10.38;;;3.88;;
64653;SDS011;51065;48.884;12.598;2023-07-24T01:58:07;10.77;;;3.53;;
64653;SDS011;51065;48.884;12.598;2023-07-24T02:00:32;11.23;;;3.97;;
64653;SDS011;51065;48.884;12.598;2023-07-24T02:02:58;10.13;;;3.83;;
64653;SDS011;51065;48.884;12.598;2023-07-24T02:05:25;8.57;;;3.22;;
64653;SDS011;51065;48.884;12.598;2023-07-24T02:07:51;8.45;;;3.35;;
64653;SDS011;51065;48.884;12.598;2023-07-24T02:10:16;10.00;;;3.63;;
64653;SDS011;51065;48.884;12.598;2023-07-24T02:12:42;10.32;;;3.90;;
64653;SDS011;51065;48.884;12.598;2023-07-24T02:15:08;9.95;;;3.60;;
64653;SDS011;51065;48.884;12.598;2023-07-24T02:17:33;9.68;;;3.45;;
64653;SDS011;51065;48.884;12.598;2023-07-24T02:19:59;9.73;;;3.58;;
64653;SDS011;51065;48.884;12.598;2023-07-24T02:22:25;11.57;;;3.67;;
64653;SDS011;51065;48.884;12.598;2023-07-24T02:24:53;10.07;;;3.75;;
64653;SDS011;51065;48.884;12.598;2023-07-24T02:27:30;9.93;;;3.50;;
64653;SDS011;51065;48.884;12.598;2023-07-24T02:29:56;10.00;;;3.25;;
64653;SDS011;51065;48.884;12.598;2023-07-24T02:32:22;11.90;;;4.10;;
64653;SDS011;51065;48.884;12.598;2023-07-24T02:34:51;11.75;;;3.65;;
64653;SDS011;51065;48.884;12.598;2023-07-24T02:37:17;10.10;;;3.63;;
64653;SDS011;51065;48.884;12.598;2023-07-24T02:39:44;11.90;;;3.50;;
64653;SDS011;51065;48.884;12.598;2023-07-24T02:42:10;15.35;;;3.97;;
64653;SDS011;51065;48.884;12.598;2023-07-24T02:44:35;8.60;;;3.33;;
64653;SDS011;51065;48.884;12.598;2023-07-24T02:47:01;9.27;;;3.55;;
64653;SDS011;51065;48.884;12.598;2023-07-24T02:49:27;10.90;;;3.38;;
64653;SDS011;51065;48.884;12.598;2023-07-24T02:51:53;8.32;;;3.50;;
64653;SDS011;51065;48.884;12.598;2023-07-24T02:54:18;9.63;;;3.65;;
64653;SDS011;51065;48.884;12.598;2023-07-24T02:56:44;14.70;;;4.15;;
64653;SDS011;51065;48.884;12.598;2023-07-24T02:59:09;9.15;;;3.50;;
64653;SDS011;51065;48.884;12.598;2023-07-24T03:01:35;8.27;;;3.58;;
64653;SDS011;51065;48.884;12.598;2023-07-24T03:04:02;9.80;;;3.40;;
64653;SDS011;51065;48.884;12.598;2023-07-24T03:06:30;11.15;;;3.42;;
64653;SDS011;51065;48.884;12.598;2023-07-24T03:08:56;12.18;;;3.90;;
64653;SDS011;51065;48.884;12.598;2023-07-24T03:11:21;9.20;;;3.55;;
64653;SDS011;51065;48.884;12.598;2023-07-24T03:13:47;10.45;;;3.80;;
64653;SDS011;51065;48.884;12.598;2023-07-24T03:16:12;10.55;;;3.90;;
64653;SDS011;51065;48.884;12.598;2023-07-24T03:18:38;10.52;;;3.60;;
64653;SDS011;51065;48.884;12.598;2023-07-24T03:21:03;8.27;;;3.10;;
64653;SDS011;51065;48.884;12.598;2023-07-24T03:23:29;8.82;;;3.53;;
64653;SDS011;51065;48.884;12.598;2023-07-24T03:25:55;8.73;;;3.45;;
64653;SDS011;51065;48.884;12.598;2023-07-24T03:28:20;9.40;;;3.53;;
64653;SDS011;51065;48.884;12.598;2023-07-24T03:30:46;10.18;;;3.42;;
64653;SDS011;51065;48.884;12.598;2023-07-24T03:33:11;9.80;;;3.53;;
64653;SDS011;51065;48.884;12.598;2023-07-24T03:35:37;11.45;;;3.60;;
64653;SDS011;51065;48.884;12.598;2023-07-24T03:38:04;8.20;;;3.15;;
64653;SDS011;51065;48.884;12.598;2023-07-24T03:40:29;9.82;;;3.78;;
64653;SDS011;51065;48.884;12.598;2023-07-24T03:42:55;12.40;;;4.30;;
64653;SDS011;51065;48.884;12.598;2023-07-24T03:45:20;10.32;;;3.42;;
64653;SDS011;51065;48.884;12.598;2023-07-24T03:47:46;9.20;;;3.60;;
64653;SDS011;51065;48.884;12.598;2023-07-24T03:50:12;9.75;;;4.13;;
64653;SDS011;51065;48.884;12.598;2023-07-24T03:52:37;11.45;;;4.35;;
64653;SDS011;51065;48.884;12.598;2023-07-24T03:55:03;10.07;;;3.60;;
64653;SDS011;51065;48.884;12.598;2023-07-24T03:57:29;9.68;;;3.58;;
64653;SDS011;51065;48.884;12.598;2023-07-24T03:59:57;10.90;;;3.35;;
64653;SDS011;51065;48.884;12.598;2023-07-24T04:02:23;11.73;;;3.85;;
64653;SDS011;51065;48.884;12.598;2023-07-24T04:04:49;12.20;;;3.47;;
64653;SDS011;51065;48.884;12.598;2023-07-24T04:07:14;10.93;;;3.60;;
64653;SDS011;51065;48.884;12.598;2023-07-24T04:09:40;10.05;;;3.67;;
64653;SDS011;51065;48.884;12.598;2023-07-24T04:12:05;10.80;;;3.58;;
64653;SDS011;51065;48.884;12.598;2023-07-24T04:14:31;8.75;;;3.22;;
64653;SDS011;51065;48.884;12.598;2023-07-24T04:16:57;10.20;;;4.10;;
64653;SDS011;51065;48.884;12.598;2023-07-24T04:19:22;11.32;;;3.63;;
64653;SDS011;51065;48.884;12.598;2023-07-24T04:21:48;11.32;;;3.70;;
64653;SDS011;51065;48.884;12.598;2023-07-24T04:24:13;11.52;;;3.92;;
64653;SDS011;51065;48.884;12.598;2023-07-24T04:26:39;10.02;;;4.07;;
64653;SDS011;51065;48.884;12.598;2023-07-24T04:29:05;14.65;;;4.45;;
64653;SDS011;51065;48.884;12.598;2023-07-24T04:31:31;10.80;;;3.70;;
64653;SDS011;51065;48.884;12.598;2023-07-24T04:33:56;9.43;;;3.78;;
64653;SDS011;51065;48.884;12.598;2023-07-24T04:36:22;12.68;;;3.97;;
64653;SDS011;51065;48.884;12.598;2023-07-24T04:38:48;12.70;;;4.18;;
64653;SDS011;51065;48.884;12.598;2023-07-24T04:41:13;16.40;;;4.57;;
64653;SDS011;51065;48.884;12.598;2023-07-24T04:43:39;11.95;;;4.07;;
64653;SDS011;51065;48.884;12.598;2023-07-24T04:46:04;13.63;;;4.10;;
64653;SDS011;51065;48.884;12.598;2023-07-24T04:48:30;10.15;;;4.10;;
64653;SDS011;51065;48.884;12.598;2023-07-24T04:50:56;11.65;;;4.35;;
64653;SDS011;51065;48.884;12.598;2023-07-24T04:53:22;11.32;;;4.25;;
64653;SDS011;51065;48.884;12.598;2023-07-24T04:55:47;13.02;;;4.70;;
64653;SDS011;51065;48.884;12.598;2023-07-24T04:58:13;12.95;;;4.22;;
64653;SDS011;51065;48.884;12.598;2023-07-24T05:00:41;15.10;;;4.57;;
64653;SDS011;51065;48.884;12.598;2023-07-24T05:03:07;11.30;;;3.78;;
64653;SDS011;51065;48.884;12.598;2023-07-24T05:05:36;13.95;;;4.40;;
64653;SDS011;51065;48.884;12.598;2023-07-24T05:08:02;10.55;;;4.35;;
64653;SDS011;51065;48.884;12.598;2023-07-24T05:10:27;12.32;;;3.95;;
64653;SDS011;51065;48.884;12.598;2023-07-24T05:12:53;11.65;;;4.18;;
64653;SDS011;51065;48.884;12.598;2023-07-24T05:15:21;10.38;;;4.03;;
64653;SDS011;51065;48.884;12.598;2023-07-24T05:17:47;11.52;;;4.35;;
64653;SDS011;51065;48.884;12.598;2023-07-24T05:20:13;8.40;;;3.33;;
64653;SDS011;51065;48.884;12.598;2023-07-24T05:22:38;9.25;;;3.70;;
64653;SDS011;51065;48.884;12.598;2023-07-24T05:25:04;10.98;;;3.90;;
64653;SDS011;51065;48.884;12.598;2023-07-24T05:27:33;10.43;;;3.63;;
64653;SDS011;51065;48.884;12.598;2023-07-24T05:29:58;9.43;;;3.58;;
64653;SDS011;51065;48.884;12.598;2023-07-24T05:32:24;8.90;;;3.90;;
64653;SDS011;51065;48.884;12.598;2023-07-24T05:34:49;10.35;;;4.00;;
64653;SDS011;51065;48.884;12.598;2023-07-24T05:37:15;11.57;;;3.85;;
64653;SDS011;51065;48.884;12.598;2023-07-24T05:39:41;9.75;;;3.72;;
64653;SDS011;51065;48.884;12.598;2023-07-24T05:42:07;10.55;;;4.22;;
64653;SDS011;51065;48.884;12.598;2023-07-24T05:44:32;11.88;;;4.50;;
64653;SDS011;51065;48.884;12.598;2023-07-24T05:46:58;9.68;;;4.07;;
64653;SDS011;51065;48.884;12.598;2023-07-24T05:49:26;10.73;;;3.83;;
64653;SDS011;51065;48.884;12.598;2023-07-24T05:51:52;12.57;;;4.20;;
64653;SDS011;51065;48.884;12.598;2023-07-24T05:54:19;11.00;;;4.50;;
64653;SDS011;51065;48.884;12.598;2023-07-24T05:56:44;12.27;;;4.68;;
64653;SDS011;51065;48.884;12.598;2023-07-24T05:59:10;11.98;;;4.50;;
64653;SDS011;51065;48.884;12.598;2023-07-24T06:01:35;10.73;;;4.32;;
64653;SDS011;51065;48.884;12.598;2023-07-24T06:04:01;14.88;;;4.10;;
64653;SDS011;51065;48.884;12.598;2023-07-24T06:06:27;11.23;;;4.25;;
64653;SDS011;51065;48.884;12.598;2023-07-24T06:08:53;13.88;;;4.85;;
64653;SDS011;51065;48.884;12.598;2023-07-24T06:11:18;15.00;;;4.22;;
64653;SDS011;51065;48.884;12.598;2023-07-24T06:13:44;11.75;;;4.50;;
64653;SDS011;51065;48.884;12.598;2023-07-24T06:16:09;14.90;;;4.63;;
64653;SDS011;51065;48.884;12.598;2023-07-24T06:18:40;12.07;;;4.25;;
64653;SDS011;51065;48.884;12.598;2023-07-24T06:21:07;11.25;;;4.60;;
64653;SDS011;51065;48.884;12.598;2023-07-24T06:23:33;11.27;;;4.60;;
64653;SDS011;51065;48.884;12.598;2023-07-24T06:25:59;11.77;;;4.65;;
64653;SDS011;51065;48.884;12.598;2023-07-24T06:28:24;12.57;;;4.97;;
64653;SDS011;51065;48.884;12.598;2023-07-24T06:30:51;14.73;;;4.80;;
64653;SDS011;51065;48.884;12.598;2023-07-24T06:33:19;10.40;;;4.53;;
64653;SDS011;51065;48.884;12.598;2023-07-24T06:35:46;11.80;;;4.75;;
64653;SDS011;51065;48.884;12.598;2023-07-24T06:38:13;10.80;;;4.25;;
64653;SDS011;51065;48.884;12.598;2023-07-24T06:40:38;11.30;;;4.38;;
64653;SDS011;51065;48.884;12.598;2023-07-24T06:43:05;13.25;;;4.95;;
64653;SDS011;51065;48.884;12.598;2023-07-24T06:45:30;12.13;;;4.90;;
64653;SDS011;51065;48.884;12.598;2023-07-24T06:47:56;13.13;;;4.60;;
64653;SDS011;51065;48.884;12.598;2023-07-24T06:50:22;11.55;;;4.75;;
64653;SDS011;51065;48.884;12.598;2023-07-24T06:52:47;11.52;;;4.55;;
64653;SDS011;51065;48.884;12.598;2023-07-24T06:55:15;13.50;;;4.82;;
64653;SDS011;51065;48.884;12.598;2023-07-24T06:57:41;14.07;;;5.00;;
64653;SDS011;51065;48.884;12.598;2023-07-24T07:00:07;11.77;;;5.00;;
64653;SDS011;51065;48.884;12.598;2023-07-24T07:02:36;13.98;;;4.47;;
64653;SDS011;51065;48.884;12.598;2023-07-24T07:05:02;10.65;;;4.50;;
64653;SDS011;51065;48.884;12.598;2023-07-24T07:07:28;12.65;;;4.90;;
64653;SDS011;51065;48.884;12.598;2023-07-24T07:09:54;13.27;;;4.88;;
64653;SDS011;51065;48.884;12.598;2023-07-24T07:12:22;14.40;;;5.05;;
64653;SDS011;51065;48.884;12.598;2023-07-24T07:14:47;14.10;;;5.18;;
64653;SDS011;51065;48.884;12.598;2023-07-24T07:17:13;11.88;;;4.72;;
64653;SDS011;51065;48.884;12.598;2023-07-24T07:19:39;13.55;;;4.63;;
64653;SDS011;51065;48.884;12.598;2023-07-24T07:22:04;13.25;;;5.32;;
64653;SDS011;51065;48.884;12.598;2023-07-24T07:24:30;13.80;;;4.65;;
64653;SDS011;51065;48.884;12.598;2023-07-24T07:26:56;10.60;;;4.93;;
64653;SDS011;51065;48.884;12.598;2023-07-24T07:29:21;11.45;;;4.72;;
64653;SDS011;51065;48.884;12.598;2023-07-24T07:31:47;12.75;;;5.15;;
64653;SDS011;51065;48.884;12.598;2023-07-24T07:34:15;12.77;;;4.82;;
64653;SDS011;51065;48.884;12.598;2023-07-24T07:36:43;10.07;;;4.50;;
64653;SDS011;51065;48.884;12.598;2023-07-24T07:39:12;12.77;;;4.97;;
64653;SDS011;51065;48.884;12.598;2023-07-24T07:41:37;10.77;;;5.13;;
64653;SDS011;51065;48.884;12.598;2023-07-24T07:44:03;11.07;;;4.97;;
64653;SDS011;51065;48.884;12.598;2023-07-24T07:46:28;11.60;;;5.00;;
64653;SDS011;51065;48.884;12.598;2023-07-24T07:48:57;11.38;;;4.93;;
64653;SDS011;51065;48.884;12.598;2023-07-24T07:51:28;9.93;;;4.50;;
64653;SDS011;51065;48.884;12.598;2023-07-24T07:53:54;14.13;;;5.25;;
64653;SDS011;51065;48.884;12.598;2023-07-24T07:56:19;14.88;;;5.63;;
64653;SDS011;51065;48.884;12.598;2023-07-24T07:58:45;12.63;;;5.47;;
64653;SDS011;51065;48.884;12.598;2023-07-24T08:01:11;12.82;;;4.70;;
64653;SDS011;51065;48.884;12.598;2023-07-24T08:03:36;12.80;;;5.15;;
64653;SDS011;51065;48.884;12.598;2023-07-24T08:06:02;13.13;;;5.13;;
64653;SDS011;51065;48.884;12.598;2023-07-24T08:08:27;13.23;;;5.80;;
64653;SDS011;51065;48.884;12.598;2023-07-24T08:10:53;11.65;;;5.15;;
64653;SDS011;51065;48.884;12.598;2023-07-24T08:13:18;13.07;;;5.20;;
64653;SDS011;51065;48.884;12.598;2023-07-24T08:15:47;12.40;;;4.90;;
64653;SDS011;51065;48.884;12.598;2023-07-24T08:18:14;17.10;;;6.03;;
64653;SDS011;51065;48.884;12.598;2023-07-24T08:20:39;12.75;;;5.22;;
64653;SDS011;51065;48.884;12.598;2023-07-24T08:23:08;16.25;;;5.32;;
64653;SDS011;51065;48.884;12.598;2023-07-24T08:25:33;13.70;;;5.07;;
64653;SDS011;51065;48.884;12.598;2023-07-24T08:27:59;12.82;;;4.60;;
64653;SDS011;51065;48.884;12.598;2023-07-24T08:30:24;13.20;;;4.90;;
64653;SDS011;51065;48.884;12.598;2023-07-24T08:32:50;13.85;;;5.45;;
64653;SDS011;51065;48.884;12.598;2023-07-24T08:35:16;14.90;;;5.50;;
64653;SDS011;51065;48.884;12.598;2023-07-24T08:37:44;15.27;;;5.25;;
64653;SDS011;51065;48.884;12.598;2023-07-24T08:40:10;13.00;;;5.13;;
64653;SDS011;51065;48.884;12.598;2023-07-24T08:42:39;14.20;;;5.47;;
64653;SDS011;51065;48.884;12.598;2023-07-24T08:45:09;12.05;;;5.00;;
64653;SDS011;51065;48.884;12.598;2023-07-24T08:47:37;13.90;;;5.82;;
64653;SDS011;51065;48.884;12.598;2023-07-24T08:50:06;15.85;;;5.95;;
64653;SDS011;51065;48.884;12.598;2023-07-24T08:52:34;12.27;;;5.47;;
64653;SDS011;51065;48.884;12.598;2023-07-24T08:55:00;17.67;;;6.75;;
64653;SDS011;51065;48.884;12.598;2023-07-24T08:57:36;14.00;;;5.22;;
64653;SDS011;51065;48.884;12.598;2023-07-24T09:00:11;14.65;;;5.43;;
64653;SDS011;51065;48.884;12.598;2023-07-24T09:02:40;15.63;;;5.78;;
64653;SDS011;51065;48.884;12.598;2023-07-24T09:05:05;12.88;;;4.97;;
64653;SDS011;51065;48.884;12.598;2023-07-24T09:07:31;11.90;;;4.60;;
64653;SDS011;51065;48.884;12.598;2023-07-24T09:09:57;11.15;;;4.25;;
64653;SDS011;51065;48.884;12.598;2023-07-24T09:12:23;12.45;;;4.45;;
64653;SDS011;51065;48.884;12.598;2023-07-24T09:14:49;12.88;;;5.40;;
64653;SDS011;51065;48.884;12.598;2023-07-24T09:17:26;14.40;;;4.60;;
64653;SDS011;51065;48.884;12.598;2023-07-24T09:19:55;10.35;;;4.03;;
64653;SDS011;51065;48.884;12.598;2023-07-24T09:24:51;10.18;;;4.50;;
64653;SDS011;51065;48.884;12.598;2023-07-24T09:27:23;12.75;;;4.72;;
64653;SDS011;51065;48.884;12.598;2023-07-24T09:29:51;12.07;;;4.70;;
64653;SDS011;51065;48.884;12.598;2023-07-24T09:32:23;11.65;;;4.55;;
64653;SDS011;51065;48.884;12.598;2023-07-24T09:34:52;12.57;;;4.30;;
64653;SDS011;51065;48.884;12.598;2023-07-24T09:39:53;12.57;;;4.63;;
64653;SDS011;51065;48.884;12.598;2023-07-24T09:42:26;13.48;;;4.57;;
64653;SDS011;51065;48.884;12.598;2023-07-24T09:44:56;10.98;;;4.72;;
64653;SDS011;51065;48.884;12.598;2023-07-24T09:47:22;10.10;;;4.25;;
64653;SDS011;51065;48.884;12.598;2023-07-24T09:49:47;10.05;;;4.22;;
64653;SDS011;51065;48.884;12.598;2023-07-24T09:52:13;14.93;;;4.95;;
64653;SDS011;51065;48.884;12.598;2023-07-24T09:54:46;11.43;;;4.38;;
64653;SDS011;51065;48.884;12.598;2023-07-24T09:57:20;10.82;;;4.13;;
64653;SDS011;51065;48.884;12.598;2023-07-24T09:59:47;9.80;;;3.92;;
64653;SDS011;51065;48.884;12.598;2023-07-24T10:02:29;12.50;;;5.15;;
64653;SDS011;51065;48.884;12.598;2023-07-24T10:04:55;11.57;;;4.53;;
64653;SDS011;51065;48.884;12.598;2023-07-24T10:07:21;12.00;;;4.78;;
64653;SDS011;51065;48.884;12.598;2023-07-24T10:09:48;9.02;;;4.32;;
64653;SDS011;51065;48.884;12.598;2023-07-24T10:12:16;11.98;;;4.72;;
64653;SDS011;51065;48.884;12.598;2023-07-24T10:14:43;12.63;;;5.22;;
64653;SDS011;51065;48.884;12.598;2023-07-24T10:17:10;13.43;;;4.50;;
64653;SDS011;51065;48.884;12.598;2023-07-24T10:19:39;11.70;;;5.13;;
64653;SDS011;51065;48.884;12.598;2023-07-24T10:22:08;11.15;;;4.53;;
64653;SDS011;51065;48.884;12.598;2023-07-24T10:24:35;11.75;;;4.70;;
64653;SDS011;51065;48.884;12.598;2023-07-24T10:27:02;9.15;;;3.85;;
64653;SDS011;51065;48.884;12.598;2023-07-24T10:29:28;9.27;;;4.03;;
64653;SDS011;51065;48.884;12.598;2023-07-24T10:31:54;9.52;;;4.10;;
64653;SDS011;51065;48.884;12.598;2023-07-24T10:34:20;8.88;;;3.95;;
64653;SDS011;51065;48.884;12.598;2023-07-24T10:36:46;9.73;;;4.38;;
64653;SDS011;51065;48.884;12.598;2023-07-24T10:39:14;9.18;;;4.05;;
64653;SDS011;51065;48.884;12.598;2023-07-24T10:41:43;10.45;;;4.00;;
64653;SDS011;51065;48.884;12.598;2023-07-24T10:44:10;9.15;;;3.88;;
64653;SDS011;51065;48.884;12.598;2023-07-24T10:46:36;10.23;;;3.50;;
64653;SDS011;51065;48.884;12.598;2023-07-24T10:49:03;8.80;;;3.50;;
64653;SDS011;51065;48.884;12.598;2023-07-24T10:51:29;6.70;;;3.50;;
64653;SDS011;51065;48.884;12.598;2023-07-24T10:53:59;9.05;;;4.10;;
64653;SDS011;51065;48.884;12.598;2023-07-24T10:56:24;8.07;;;3.80;;
64653;SDS011;51065;48.884;12.598;2023-07-24T10:58:50;7.03;;;3.75;;
64653;SDS011;51065;48.884;12.598;2023-07-24T11:01:15;8.50;;;4.25;;
64653;SDS011;51065;48.884;12.598;2023-07-24T11:03:43;8.35;;;3.42;;
64653;SDS011;51065;48.884;12.598;2023-07-24T11:06:15;7.35;;;3.47;;
64653;SDS011;51065;48.884;12.598;2023-07-24T11:08:51;9.57;;;3.78;;
64653;SDS011;51065;48.884;12.598;2023-07-24T11:11:17;9.38;;;4.22;;
64653;SDS011;51065;48.884;12.598;2023-07-24T11:13:43;10.32;;;3.97;;
64653;SDS011;51065;48.884;12.598;2023-07-24T11:16:08;8.23;;;3.90;;
64653;SDS011;51065;48.884;12.598;2023-07-24T11:18:43;10.95;;;4.38;;
64653;SDS011;51065;48.884;12.598;2023-07-24T11:21:13;12.07;;;4.32;;
64653;SDS011;51065;48.884;12.598;2023-07-24T11:23:46;12.15;;;4.15;;
64653;SDS011;51065;48.884;12.598;2023-07-24T11:26:18;9.43;;;4.40;;
64653;SDS011;51065;48.884;12.598;2023-07-24T11:28:45;10.50;;;4.20;;
64653;SDS011;51065;48.884;12.598;2023-07-24T11:31:10;9.15;;;4.13;;
64653;SDS011;51065;48.884;12.598;2023-07-24T11:33:36;10.60;;;4.13;;
64653;SDS011;51065;48.884;12.598;2023-07-24T11:36:02;8.50;;;4.28;;
64653;SDS011;51065;48.884;12.598;2023-07-24T11:38:28;10.68;;;4.43;;
64653;SDS011;51065;48.884;12.598;2023-07-24T11:40:54;10.93;;;4.45;;
64653;SDS011;51065;48.884;12.598;2023-07-24T11:43:21;10.48;;;4.38;;
64653;SDS011;51065;48.884;12.598;2023-07-24T11:45:48;9.55;;;4.28;;
64653;SDS011;51065;48.884;12.598;2023-07-24T11:48:17;12.10;;;4.35;;
64653;SDS011;51065;48.884;12.598;2023-07-24T11:50:51;9.95;;;4.20;;
64653;SDS011;51065;48.884;12.598;2023-07-24T11:53:27;8.88;;;4.10;;
64653;SDS011;51065;48.884;12.598;2023-07-24T11:55:54;10.18;;;4.13;;
64653;SDS011;51065;48.884;12.598;2023-07-24T11:58:21;9.77;;;4.68;;
64653;SDS011;51065;48.884;12.598;2023-07-24T12:00:47;10.60;;;4.50;;
64653;SDS011;51065;48.884;12.598;2023-07-24T12:03:20;11.73;;;4.20;;
64653;SDS011;51065;48.884;12.598;2023-07-24T12:05:46;10.98;;;4.35;;
64653;SDS011;51065;48.884;12.598;2023-07-24T12:08:12;9.75;;;4.80;;
64653;SDS011;51065;48.884;12.598;2023-07-24T12:10:39;10.77;;;4.80;;
64653;SDS011;51065;48.884;12.598;2023-07-24T12:13:05;8.63;;;4.53;;
64653;SDS011;51065;48.884;12.598;2023-07-24T12:15:31;9.68;;;4.50;;
64653;SDS011;51065;48.884;12.598;2023-07-24T12:17:59;8.68;;;4.20;;
64653;SDS011;51065;48.884;12.598;2023-07-24T12:20:25;8.85;;;4.03;;
64653;SDS011;51065;48.884;12.598;2023-07-24T12:22:51;9.95;;;4.45;;
64653;SDS011;51065;48.884;12.598;2023-07-24T12:25:23;7.97;;;4.35;;
64653;SDS011;51065;48.884;12.598;2023-07-24T12:27:49;8.23;;;4.07;;
64653;SDS011;51065;48.884;12.598;2023-07-24T12:30:15;7.82;;;3.85;;
64653;SDS011;51065;48.884;12.598;2023-07-24T12:32:40;5.80;;;3.45;;
64653;SDS011;51065;48.884;12.598;2023-07-24T12:35:07;18.83;;;5.47;;
64653;SDS011;51065;48.884;12.598;2023-07-24T12:37:34;15.80;;;4.28;;
64653;SDS011;51065;48.884;12.598;2023-07-24T12:39:59;7.00;;;3.03;;
64653;SDS011;51065;48.884;12.598;2023-07-24T12:42:25;7.60;;;3.45;;
64653;SDS011;51065;48.884;12.598;2023-07-24T12:44:51;14.50;;;4.28;;
64653;SDS011;51065;48.884;12.598;2023-07-24T12:47:23;9.45;;;3.25;;
64653;SDS011;51065;48.884;12.598;2023-07-24T12:49:48;6.20;;;3.17;;
64653;SDS011;51065;48.884;12.598;2023-07-24T12:52:21;6.10;;;3.10;;
64653;SDS011;51065;48.884;12.598;2023-07-24T12:54:46;14.35;;;3.80;;
64653;SDS011;51065;48.884;12.598;2023-07-24T12:57:15;6.20;;;3.00;;
64653;SDS011;51065;48.884;12.598;2023-07-24T12:59:40;12.43;;;3.38;;
64653;SDS011;51065;48.884;12.598;2023-07-24T13:02:08;8.82;;;2.90;;
64653;SDS011;51065;48.884;12.598;2023-07-24T13:04:40;6.72;;;2.92;;
64653;SDS011;51065;48.884;12.598;2023-07-24T13:07:06;7.07;;;3.13;;
64653;SDS011;51065;48.884;12.598;2023-07-24T13:09:31;7.03;;;2.72;;
64653;SDS011;51065;48.884;12.598;2023-07-24T13:11:57;5.40;;;3.00;;
64653;SDS011;51065;48.884;12.598;2023-07-24T13:14:22;4.90;;;2.60;;
64653;SDS011;51065;48.884;12.598;2023-07-24T13:16:48;6.75;;;2.78;;
64653;SDS011;51065;48.884;12.598;2023-07-24T13:19:15;5.03;;;2.80;;
64653;SDS011;51065;48.884;12.598;2023-07-24T13:21:40;5.05;;;2.63;;
64653;SDS011;51065;48.884;12.598;2023-07-24T13:24:07;8.15;;;3.10;;
64653;SDS011;51065;48.884;12.598;2023-07-24T13:26:33;20.05;;;4.15;;
64653;SDS011;51065;48.884;12.598;2023-07-24T13:28:59;12.25;;;3.97;;
64653;SDS011;51065;48.884;12.598;2023-07-24T13:31:24;11.32;;;4.68;;
64653;SDS011;51065;48.884;12.598;2023-07-24T13:33:50;9.60;;;3.55;;
64653;SDS011;51065;48.884;12.598;2023-07-24T13:36:16;10.85;;;3.97;;
64653;SDS011;51065;48.884;12.598;2023-07-24T13:38:41;9.68;;;3.80;;
64653;SDS011;51065;48.884;12.598;2023-07-24T13:41:08;10.35;;;3.63;;
64653;SDS011;51065;48.884;12.598;2023-07-24T13:43:33;8.73;;;3.78;;
64653;SDS011;51065;48.884;12.598;2023-07-24T13:45:59;9.20;;;4.07;;
64653;SDS011;51065;48.884;12.598;2023-07-24T13:48:27;8.65;;;3.72;;
64653;SDS011;51065;48.884;12.598;2023-07-24T13:50:59;10.25;;;3.90;;
64653;SDS011;51065;48.884;12.598;2023-07-24T13:53:24;9.68;;;3.80;;
64653;SDS011;51065;48.884;12.598;2023-07-24T13:55:50;9.43;;;3.95;;
64653;SDS011;51065;48.884;12.598;2023-07-24T13:58:16;7.05;;;3.33;;
64653;SDS011;51065;48.884;12.598;2023-07-24T14:00:41;7.90;;;3.92;;
64653;SDS011;51065;48.884;12.598;2023-07-24T14:03:07;7.53;;;2.95;;
64653;SDS011;51065;48.884;12.598;2023-07-24T14:05:33;10.13;;;3.60;;
64653;SDS011;51065;48.884;12.598;2023-07-24T14:08:03;8.90;;;3.45;;
64653;SDS011;51065;48.884;12.598;2023-07-24T14:10:28;7.13;;;3.58;;
64653;SDS011;51065;48.884;12.598;2023-07-24T14:12:54;10.02;;;3.85;;
64653;SDS011;51065;48.884;12.598;2023-07-24T14:15:20;6.68;;;3.20;;
64653;SDS011;51065;48.884;12.598;2023-07-24T14:17:46;6.10;;;2.88;;
64653;SDS011;51065;48.884;12.598;2023-07-24T14:20:11;7.15;;;3.00;;
64653;SDS011;51065;48.884;12.598;2023-07-24T14:22:37;5.93;;;3.20;;
64653;SDS011;51065;48.884;12.598;2023-07-24T14:25:03;7.82;;;3.58;;
64653;SDS011;51065;48.884;12.598;2023-07-24T14:27:30;6.68;;;3.22;;
64653;SDS011;51065;48.884;12.598;2023-07-24T14:29:56;8.80;;;3.35;;